Time;durP1;ratioP1;P1;durP2;ratioP2;P2;SDS_P1;SDS_P2;PMS_P1;PMS_P2;Temp;Humidity;BMP_temperature;BMP_pressure;BME280_temperature;BME280_humidity;BME280_pressure;Samples;Min_cycle;Max_cycle;Signal;HPM_P1;HPM_P2
2022/04/10 00:01:54;;;;;;;5.57;2.23;;;;;;;;;;4938667;28;21137;-87
2022/04/10 00:04:58;;;;;;;2.87;2.20;;;;;;;;;;4954602;28;20590;-86
2022/04/10 00:08:04;;;;;;;5.70;2.40;;;;;;;;;;4946359;29;20654;-87
2022/04/10 00:11:08;;;;;;;3.60;2.30;;;;;;;;;;4974073;28;21152;-86
2022/04/10 00:14:13;;;;;;;3.97;2.00;;;;;;;;;;4957095;29;20587;-87
2022/04/10 00:17:36;;;;;;;3.80;2.27;;;;;;;;;;4963762;28;20641;-86
2022/04/10 00:20:40;;;;;;;6.07;2.40;;;;;;;;;;4965344;28;20586;-87
2022/04/10 00:23:44;;;;;;;6.03;2.87;;;;;;;;;;4965839;28;20582;-86
2022/04/10 00:26:48;;;;;;;4.63;2.70;;;;;;;;;;4956745;29;20623;-86
2022/04/10 00:29:52;;;;;;;3.70;2.50;;;;;;;;;;4954113;28;20582;-86
2022/04/10 00:32:57;;;;;;;6.83;2.90;;;;;;;;;;4946361;28;21165;-86
2022/04/10 00:36:02;;;;;;;7.57;3.00;;;;;;;;;;4950421;28;21174;-87
2022/04/10 00:39:06;;;;;;;3.60;2.60;;;;;;;;;;4953534;28;21243;-86
2022/04/10 00:42:10;;;;;;;4.50;2.57;;;;;;;;;;4954671;28;21196;-86
2022/04/10 00:45:16;;;;;;;4.30;2.77;;;;;;;;;;4953658;28;21149;-86
2022/04/10 00:48:20;;;;;;;7.23;2.67;;;;;;;;;;4945815;28;20649;-86
2022/04/10 00:54:48;;;;;;;7.10;2.80;;;;;;;;;;4975744;28;20606;-86
2022/04/10 00:57:53;;;;;;;4.40;2.47;;;;;;;;;;4990957;23;20682;-84
2022/04/10 01:00:57;;;;;;;5.30;2.70;;;;;;;;;;4951430;28;20583;-84
2022/04/10 01:04:03;;;;;;;5.00;2.53;;;;;;;;;;4975369;28;20984;-84
2022/04/10 01:07:12;;;;;;;5.60;2.57;;;;;;;;;;4945462;29;20591;-84
2022/04/10 01:10:20;;;;;;;5.03;2.70;;;;;;;;;;4945233;29;20576;-84
2022/04/10 01:13:24;;;;;;;3.80;2.30;;;;;;;;;;4921878;29;20587;-84
2022/04/10 01:16:29;;;;;;;5.20;2.63;;;;;;;;;;4941950;29;20590;-84
2022/04/10 01:19:34;;;;;;;6.63;2.70;;;;;;;;;;4945252;29;20663;-84
2022/04/10 01:22:40;;;;;;;6.50;3.10;;;;;;;;;;4923252;29;20587;-84
2022/04/10 01:25:49;;;;;;;5.70;3.23;;;;;;;;;;4940819;29;20591;-84
2022/04/10 01:29:01;;;;;;;5.57;2.43;;;;;;;;;;4930207;29;20646;-84
2022/04/10 01:32:08;;;;;;;4.47;2.57;;;;;;;;;;4943845;29;20599;-84
2022/04/10 01:35:13;;;;;;;7.60;2.60;;;;;;;;;;4933052;29;20971;-84
2022/04/10 01:38:19;;;;;;;4.37;2.63;;;;;;;;;;4933091;28;20979;-84
2022/04/10 01:41:28;;;;;;;6.03;2.47;;;;;;;;;;4926426;29;21194;-84
2022/04/10 01:44:42;;;;;;;3.77;2.73;;;;;;;;;;4933487;29;21188;-84
2022/04/10 01:47:53;;;;;;;5.47;2.90;;;;;;;;;;4933394;29;20654;-84
2022/04/10 01:50:58;;;;;;;7.50;2.73;;;;;;;;;;4936097;29;21138;-84
2022/04/10 01:54:03;;;;;;;4.33;2.80;;;;;;;;;;4925945;29;20596;-84
2022/04/10 01:57:08;;;;;;;4.60;2.30;;;;;;;;;;4924493;29;20584;-84
2022/04/10 02:00:14;;;;;;;4.47;2.70;;;;;;;;;;4921575;29;20639;-84
2022/04/10 02:03:19;;;;;;;4.63;2.93;;;;;;;;;;4943870;29;20595;-84
2022/04/10 02:06:25;;;;;;;6.40;3.00;;;;;;;;;;4927653;29;20587;-84
2022/04/10 02:09:30;;;;;;;6.53;3.07;;;;;;;;;;4924923;29;21008;-84
2022/04/10 02:12:35;;;;;;;12.67;3.20;;;;;;;;;;4933573;29;20934;-84
2022/04/10 02:15:40;;;;;;;2.97;2.67;;;;;;;;;;4917836;29;20622;-84
2022/04/10 02:18:46;;;;;;;5.17;2.87;;;;;;;;;;4943815;29;20650;-84
2022/04/10 02:21:50;;;;;;;3.47;2.80;;;;;;;;;;4955056;29;20595;-84
2022/04/10 02:24:54;;;;;;;4.00;2.80;;;;;;;;;;4940692;29;20611;-84
2022/04/10 02:27:58;;;;;;;4.30;2.90;;;;;;;;;;4925115;29;20659;-84
2022/04/10 02:31:02;;;;;;;6.53;3.30;;;;;;;;;;4932066;29;20590;-84
2022/04/10 02:34:08;;;;;;;6.00;2.87;;;;;;;;;;4937416;29;20588;-84
2022/04/10 02:37:12;;;;;;;5.00;2.57;;;;;;;;;;4931167;29;20591;-84
2022/04/10 02:40:18;;;;;;;3.90;2.80;;;;;;;;;;4935886;29;20642;-84
2022/04/10 02:43:22;;;;;;;5.97;2.70;;;;;;;;;;4938085;29;21158;-84
2022/04/10 02:46:31;;;;;;;6.40;3.40;;;;;;;;;;4955035;29;21173;-84
2022/04/10 02:49:36;;;;;;;5.00;2.93;;;;;;;;;;4926011;29;20644;-84
2022/04/10 02:52:40;;;;;;;6.10;2.97;;;;;;;;;;4932150;29;20627;-84
2022/04/10 02:55:46;;;;;;;4.00;3.00;;;;;;;;;;4926674;29;20603;-84
2022/04/10 02:59:08;;;;;;;8.57;3.20;;;;;;;;;;4944593;29;20670;-84
2022/04/10 03:02:31;;;;;;;4.70;3.00;;;;;;;;;;4941000;29;20634;-84
2022/04/10 03:05:53;;;;;;;5.33;3.30;;;;;;;;;;4950919;29;20595;-84
2022/04/10 03:09:16;;;;;;;3.70;2.63;;;;;;;;;;4959542;29;20631;-84
2022/04/10 03:12:39;;;;;;;5.63;3.33;;;;;;;;;;4959147;29;20599;-84
2022/04/10 03:16:02;;;;;;;10.90;3.10;;;;;;;;;;4959261;29;20603;-84
2022/04/10 03:19:27;;;;;;;6.83;3.33;;;;;;;;;;4950437;29;20658;-84
2022/04/10 03:22:50;;;;;;;6.97;3.10;;;;;;;;;;4949049;29;21158;-84
2022/04/10 03:26:13;;;;;;;5.27;2.77;;;;;;;;;;4950172;29;20595;-84
2022/04/10 03:29:36;;;;;;;7.17;2.87;;;;;;;;;;4950888;29;20641;-84
2022/04/10 03:32:59;;;;;;;6.67;3.47;;;;;;;;;;4959110;29;20599;-84
2022/04/10 03:36:23;;;;;;;5.87;3.10;;;;;;;;;;4951159;29;20607;-84
2022/04/10 03:39:46;;;;;;;5.93;3.07;;;;;;;;;;4950884;29;20655;-84
2022/04/10 03:43:11;;;;;;;6.83;3.30;;;;;;;;;;4959172;29;20587;-84
2022/04/10 03:46:34;;;;;;;4.50;2.47;;;;;;;;;;4937776;29;20596;-84
2022/04/10 03:49:56;;;;;;;7.67;3.20;;;;;;;;;;4959148;29;21133;-84
2022/04/10 03:53:19;;;;;;;4.00;2.90;;;;;;;;;;4934670;29;20583;-84
2022/04/10 03:56:43;;;;;;;5.73;3.20;;;;;;;;;;4958878;29;20599;-84
2022/04/10 04:00:06;;;;;;;5.20;2.90;;;;;;;;;;4958461;29;21209;-84
2022/04/10 04:03:38;;;;;;;6.47;2.70;;;;;;;;;;4959224;29;20548;-84
2022/04/10 04:07:03;;;;;;;5.27;3.00;;;;;;;;;;4958003;29;20595;-84
2022/04/10 04:10:26;;;;;;;4.03;2.90;;;;;;;;;;4957521;29;20600;-84
2022/04/10 04:13:49;;;;;;;5.30;3.50;;;;;;;;;;4957806;29;20599;-84
2022/04/10 04:17:12;;;;;;;4.83;2.87;;;;;;;;;;4957818;29;20587;-84
2022/04/10 04:20:35;;;;;;;3.67;2.67;;;;;;;;;;4948912;29;21193;-84
2022/04/10 04:23:58;;;;;;;8.80;3.10;;;;;;;;;;4949178;29;20599;-84
2022/04/10 04:27:21;;;;;;;5.03;3.17;;;;;;;;;;4948792;28;20940;-85
2022/04/10 04:30:44;;;;;;;4.70;3.00;;;;;;;;;;4958010;29;20536;-84
2022/04/10 04:34:09;;;;;;;3.90;2.80;;;;;;;;;;4948535;29;20610;-84
2022/04/10 04:37:32;;;;;;;5.77;3.40;;;;;;;;;;4948246;28;21145;-84
2022/04/10 04:40:55;;;;;;;5.10;3.40;;;;;;;;;;4948349;29;20639;-84
2022/04/10 04:44:17;;;;;;;7.00;3.60;;;;;;;;;;4941346;29;21136;-84
2022/04/10 04:47:40;;;;;;;3.93;2.90;;;;;;;;;;4948030;28;20603;-84
2022/04/10 04:51:03;;;;;;;5.10;3.00;;;;;;;;;;4948401;29;20599;-84
2022/04/10 04:54:27;;;;;;;4.07;3.67;;;;;;;;;;4948523;29;20603;-84
2022/04/10 04:57:49;;;;;;;4.90;3.20;;;;;;;;;;4945704;29;20651;-84
2022/04/10 05:01:13;;;;;;;7.27;3.60;;;;;;;;;;4928961;29;20648;-84
2022/04/10 05:04:36;;;;;;;5.67;3.10;;;;;;;;;;4965449;28;20623;-84
2022/04/10 05:08:00;;;;;;;4.00;2.80;;;;;;;;;;4956111;28;20647;-84
2022/04/10 05:11:23;;;;;;;6.00;3.30;;;;;;;;;;4938000;29;20538;-85
2022/04/10 05:14:46;;;;;;;7.00;3.33;;;;;;;;;;4940200;29;20591;-84
2022/04/10 05:18:13;;;;;;;5.90;3.13;;;;;;;;;;4957042;28;20654;-84
2022/04/10 05:21:38;;;;;;;5.37;3.37;;;;;;;;;;4955838;29;20626;-84
2022/04/10 05:25:01;;;;;;;6.73;3.47;;;;;;;;;;4947763;29;20599;-84
2022/04/10 05:28:30;;;;;;;5.53;3.20;;;;;;;;;;4955690;29;20651;-84
2022/04/10 05:31:53;;;;;;;5.83;2.87;;;;;;;;;;4944891;29;21142;-84
2022/04/10 05:35:16;;;;;;;7.70;3.73;;;;;;;;;;4956212;29;20595;-84
2022/04/10 05:38:40;;;;;;;5.50;4.03;;;;;;;;;;4950957;28;20643;-84
2022/04/10 05:42:02;;;;;;;9.10;4.23;;;;;;;;;;4939593;29;20881;-84
2022/04/10 05:45:26;;;;;;;10.40;5.90;;;;;;;;;;4938060;29;20541;-84
2022/04/10 05:48:51;;;;;;;6.77;5.93;;;;;;;;;;4933312;29;20624;-85
2022/04/10 05:52:14;;;;;;;5.20;3.23;;;;;;;;;;4929750;29;20549;-84
2022/04/10 05:55:37;;;;;;;5.37;3.50;;;;;;;;;;4936748;29;20549;-84
2022/04/10 05:59:06;;;;;;;7.07;4.07;;;;;;;;;;4944752;29;20651;-84
2022/04/10 06:02:29;;;;;;;5.90;3.97;;;;;;;;;;4936436;29;20533;-83
2022/04/10 06:05:52;;;;;;;12.83;8.97;;;;;;;;;;4956122;29;20576;-84
2022/04/10 06:09:26;;;;;;;4.67;3.30;;;;;;;;;;4954858;28;20995;-84
2022/04/10 06:12:49;;;;;;;7.97;3.93;;;;;;;;;;4937402;29;20592;-84
2022/04/10 06:15:58;;;;;;;6.20;3.60;;;;;;;;;;4956194;29;20580;-84
2022/04/10 06:19:03;;;;;;;5.50;3.40;;;;;;;;;;4945438;29;20974;-84
2022/04/10 06:22:09;;;;;;;5.63;3.63;;;;;;;;;;4945622;29;20540;-84
2022/04/10 06:25:13;;;;;;;7.13;5.30;;;;;;;;;;4945368;29;20540;-84
2022/04/10 06:28:17;;;;;;;8.40;5.90;;;;;;;;;;4933528;29;20635;-84
2022/04/10 06:31:24;;;;;;;9.77;8.50;;;;;;;;;;4925859;29;20960;-84
2022/04/10 06:34:29;;;;;;;7.50;5.70;;;;;;;;;;4937303;28;20596;-86
2022/04/10 06:37:35;;;;;;;11.57;4.87;;;;;;;;;;4940520;28;20995;-85
2022/04/10 06:40:40;;;;;;;9.53;4.77;;;;;;;;;;4937306;29;20599;-84
2022/04/10 06:43:44;;;;;;;6.80;4.27;;;;;;;;;;4939749;29;21190;-83
2022/04/10 06:46:54;;;;;;;8.27;4.00;;;;;;;;;;4940576;29;20552;-83
2022/04/10 06:50:04;;;;;;;13.23;6.30;;;;;;;;;;4931896;29;20548;-82
2022/04/10 06:53:09;;;;;;;9.23;4.87;;;;;;;;;;4929781;29;20200;-84
2022/04/10 06:56:14;;;;;;;8.77;4.20;;;;;;;;;;4929537;29;20632;-84
2022/04/10 06:59:19;;;;;;;7.50;4.60;;;;;;;;;;4930232;29;21002;-84
2022/04/10 07:02:25;;;;;;;6.50;4.93;;;;;;;;;;4919270;29;20541;-84
2022/04/10 07:05:31;;;;;;;7.77;5.27;;;;;;;;;;4969998;28;20647;-84
2022/04/10 07:08:37;;;;;;;24.30;11.07;;;;;;;;;;4948345;29;20222;-84
2022/04/10 07:11:42;;;;;;;23.90;10.40;;;;;;;;;;4934298;29;20552;-84
2022/04/10 07:15:01;;;;;;;9.10;5.87;;;;;;;;;;4942800;29;20208;-84
2022/04/10 07:18:07;;;;;;;7.57;4.80;;;;;;;;;;4949224;29;20567;-84
2022/04/10 07:21:11;;;;;;;5.50;4.50;;;;;;;;;;4938302;29;20690;-84
2022/04/10 07:24:16;;;;;;;5.33;4.37;;;;;;;;;;4920375;29;20176;-84
2022/04/10 07:27:27;;;;;;;7.57;5.70;;;;;;;;;;4929279;29;20200;-84
2022/04/10 07:30:50;;;;;;;8.37;5.47;;;;;;;;;;4920688;29;20177;-84
2022/04/10 07:33:55;;;;;;;7.37;5.90;;;;;;;;;;4938931;29;20208;-84
2022/04/10 07:37:20;;;;;;;7.03;5.63;;;;;;;;;;4951045;29;20556;-84
2022/04/10 07:40:31;;;;;;;7.20;4.97;;;;;;;;;;4939833;29;20215;-84
2022/04/10 07:43:36;;;;;;;6.40;5.23;;;;;;;;;;4946624;29;20195;-84
2022/04/10 07:50:04;;;;;;;7.97;4.77;;;;;;;;;;4958145;29;20628;-84
2022/04/10 07:53:09;;;;;;;6.63;4.70;;;;;;;;;;4946730;29;20199;-84
2022/04/10 07:56:16;;;;;;;7.40;4.57;;;;;;;;;;4934791;29;20579;-84
2022/04/10 07:59:20;;;;;;;7.63;4.80;;;;;;;;;;4937270;29;20232;-85
2022/04/10 08:02:25;;;;;;;8.33;5.47;;;;;;;;;;4927102;29;20225;-84
2022/04/10 08:05:29;;;;;;;4.37;3.87;;;;;;;;;;4952092;28;20531;-85
2022/04/10 08:08:40;;;;;;;6.17;4.43;;;;;;;;;;4950151;29;20223;-84
2022/04/10 08:11:44;;;;;;;8.63;4.53;;;;;;;;;;4926560;29;20204;-85
2022/04/10 08:14:49;;;;;;;5.40;4.03;;;;;;;;;;4926996;29;20655;-84
2022/04/10 08:17:53;;;;;;;6.03;3.90;;;;;;;;;;4926641;29;20219;-85
2022/04/10 08:20:57;;;;;;;7.20;3.90;;;;;;;;;;4945138;29;20211;-87
2022/04/10 08:24:01;;;;;;;6.80;4.50;;;;;;;;;;4947818;29;20195;-87
2022/04/10 08:27:15;;;;;;;7.10;3.50;;;;;;;;;;4953289;28;20183;-87
2022/04/10 08:30:20;;;;;;;5.20;3.53;;;;;;;;;;4931607;29;20662;-85
2022/04/10 08:33:24;;;;;;;5.03;3.37;;;;;;;;;;4945982;29;20203;-84
2022/04/10 08:36:28;;;;;;;4.93;3.63;;;;;;;;;;4934691;29;20516;-84
2022/04/10 08:39:32;;;;;;;5.13;3.43;;;;;;;;;;4936967;29;20583;-84
2022/04/10 08:42:37;;;;;;;6.30;3.20;;;;;;;;;;4945492;29;20207;-85
2022/04/10 08:45:43;;;;;;;5.77;3.33;;;;;;;;;;4934750;29;20183;-85
2022/04/10 08:48:49;;;;;;;5.20;3.07;;;;;;;;;;4945358;29;20219;-84
2022/04/10 08:51:53;;;;;;;8.70;4.53;;;;;;;;;;4945612;29;20172;-84
2022/04/10 08:54:57;;;;;;;5.77;3.50;;;;;;;;;;4936931;29;20181;-85
2022/04/10 08:58:03;;;;;;;6.53;3.63;;;;;;;;;;4925576;29;20224;-85
2022/04/10 09:01:13;;;;;;;6.83;3.37;;;;;;;;;;4925908;29;20223;-85
2022/04/10 09:04:17;;;;;;;5.90;2.70;;;;;;;;;;4931398;29;20566;-85
2022/04/10 09:07:22;;;;;;;6.20;3.00;;;;;;;;;;4924275;29;20188;-85
2022/04/10 09:10:25;;;;;;;7.03;3.63;;;;;;;;;;4925589;29;20188;-85
2022/04/10 09:13:47;;;;;;;5.77;2.67;;;;;;;;;;4925504;29;20185;-86
2022/04/10 09:17:13;;;;;;;5.63;2.60;;;;;;;;;;4925567;29;20188;-85
2022/04/10 09:20:17;;;;;;;3.53;2.37;;;;;;;;;;4914839;29;20173;-85
2022/04/10 09:23:22;;;;;;;6.97;2.73;;;;;;;;;;4925824;29;20640;-85
2022/04/10 09:26:27;;;;;;;4.17;2.50;;;;;;;;;;4925498;29;20188;-85
2022/04/10 09:29:31;;;;;;;3.40;2.20;;;;;;;;;;4914514;29;20223;-85
2022/04/10 09:32:47;;;;;;;2.73;1.90;;;;;;;;;;4915295;29;20505;-85
2022/04/10 09:35:51;;;;;;;3.00;2.13;;;;;;;;;;4915819;29;20184;-85
2022/04/10 09:38:55;;;;;;;2.90;2.17;;;;;;;;;;4915766;29;20216;-85
2022/04/10 09:42:08;;;;;;;6.63;2.20;;;;;;;;;;4925375;29;20211;-84
2022/04/10 09:45:38;;;;;;;3.40;2.03;;;;;;;;;;4925314;29;20180;-85
2022/04/10 09:48:43;;;;;;;3.90;1.80;;;;;;;;;;4925802;29;20223;-85
2022/04/10 09:52:01;;;;;;;4.80;2.17;;;;;;;;;;4926828;29;20176;-85
2022/04/10 09:55:08;;;;;;;3.80;2.10;;;;;;;;;;4926635;29;20189;-85
2022/04/10 09:58:13;;;;;;;3.60;2.00;;;;;;;;;;4925533;29;20225;-85
2022/04/10 10:01:19;;;;;;;3.53;1.80;;;;;;;;;;4925372;29;20216;-85
2022/04/10 10:04:24;;;;;;;2.43;1.80;;;;;;;;;;4935910;29;20195;-84
2022/04/10 10:07:29;;;;;;;4.60;2.17;;;;;;;;;;4924655;29;20180;-85
2022/04/10 10:10:35;;;;;;;3.73;2.00;;;;;;;;;;4913622;29;20180;-85
2022/04/10 10:13:40;;;;;;;3.67;1.90;;;;;;;;;;4924367;29;20200;-85
2022/04/10 10:16:45;;;;;;;3.47;1.80;;;;;;;;;;4924930;29;20523;-85
2022/04/10 10:19:52;;;;;;;3.93;2.07;;;;;;;;;;4925151;29;20647;-85
2022/04/10 10:23:02;;;;;;;4.63;2.20;;;;;;;;;;4914158;29;20205;-85
2022/04/10 10:26:38;;;;;;;5.20;1.83;;;;;;;;;;4914597;29;20189;-85
2022/04/10 10:29:42;;;;;;;6.17;2.83;;;;;;;;;;4931663;29;20690;-85
2022/04/10 10:32:50;;;;;;;21.03;10.60;;;;;;;;;;4927725;29;20184;-86
2022/04/10 10:36:01;;;;;;;6.23;2.57;;;;;;;;;;4929612;29;20548;-85
2022/04/10 10:39:08;;;;;;;6.33;3.00;;;;;;;;;;4935905;29;20224;-85
2022/04/10 10:42:13;;;;;;;5.47;2.10;;;;;;;;;;4931077;29;20203;-85
2022/04/10 10:45:41;;;;;;;4.37;2.17;;;;;;;;;;4927816;29;20192;-86
2022/04/10 10:48:45;;;;;;;3.70;1.93;;;;;;;;;;4947972;28;20212;-85
2022/04/10 10:51:51;;;;;;;5.17;3.47;;;;;;;;;;4934103;29;20189;-85
2022/04/10 10:54:57;;;;;;;3.33;2.27;;;;;;;;;;4933874;29;20627;-85
2022/04/10 10:58:07;;;;;;;4.07;2.20;;;;;;;;;;4935577;29;20239;-86
2022/04/10 11:01:19;;;;;;;6.03;2.27;;;;;;;;;;4946359;29;20628;-86
2022/04/10 11:04:28;;;;;;;3.00;2.10;;;;;;;;;;4924212;29;20184;-86
2022/04/10 11:07:38;;;;;;;3.17;1.97;;;;;;;;;;4924310;29;20184;-86
2022/04/10 11:11:18;;;;;;;5.07;1.87;;;;;;;;;;4913574;29;20181;-85
2022/04/10 11:14:33;;;;;;;4.43;2.10;;;;;;;;;;4924687;29;20181;-86
2022/04/10 11:17:37;;;;;;;3.80;1.97;;;;;;;;;;4924386;29;20181;-86
2022/04/10 11:20:53;;;;;;;6.93;1.87;;;;;;;;;;4924022;29;20204;-86
2022/04/10 11:23:57;;;;;;;2.63;1.97;;;;;;;;;;4938509;29;20510;-86
2022/04/10 11:27:05;;;;;;;4.13;2.13;;;;;;;;;;4949255;29;20184;-85
2022/04/10 11:30:14;;;;;;;3.20;1.73;;;;;;;;;;4927703;29;20184;-86
2022/04/10 11:33:18;;;;;;;3.80;2.13;;;;;;;;;;4927413;29;20521;-85
2022/04/10 11:36:22;;;;;;;2.10;1.60;;;;;;;;;;4927034;29;20180;-86
2022/04/10 11:39:28;;;;;;;2.90;1.90;;;;;;;;;;4926946;29;20228;-86
2022/04/10 11:42:33;;;;;;;2.33;1.70;;;;;;;;;;4938328;29;20215;-85
2022/04/10 11:45:38;;;;;;;4.40;1.70;;;;;;;;;;4926793;29;20544;-86
2022/04/10 11:48:43;;;;;;;3.17;1.70;;;;;;;;;;4926984;29;20220;-85
2022/04/10 11:51:54;;;;;;;4.40;1.97;;;;;;;;;;4927146;29;20184;-86
2022/04/10 11:54:57;;;;;;;4.60;2.00;;;;;;;;;;4937844;29;20180;-85
2022/04/10 11:58:22;;;;;;;5.43;2.20;;;;;;;;;;4926967;29;20227;-86
2022/04/10 12:01:28;;;;;;;3.77;1.97;;;;;;;;;;4937908;29;20188;-85
2022/04/10 12:04:35;;;;;;;5.30;2.60;;;;;;;;;;4927151;29;20176;-86
2022/04/10 12:07:41;;;;;;;3.27;2.10;;;;;;;;;;4937714;29;20188;-86
2022/04/10 12:10:52;;;;;;;3.23;1.70;;;;;;;;;;4926879;29;20184;-85
2022/04/10 12:13:57;;;;;;;6.97;2.10;;;;;;;;;;4926501;29;20185;-86
2022/04/10 12:17:01;;;;;;;4.23;1.90;;;;;;;;;;4926602;29;20184;-86
2022/04/10 12:20:06;;;;;;;3.80;2.10;;;;;;;;;;4937220;29;20180;-86
2022/04/10 12:23:18;;;;;;;4.70;2.17;;;;;;;;;;4926145;29;20227;-86
2022/04/10 12:26:22;;;;;;;4.23;2.17;;;;;;;;;;4937627;29;20185;-86
2022/04/10 12:29:30;;;;;;;4.87;2.60;;;;;;;;;;4926660;29;20683;-86
2022/04/10 12:32:34;;;;;;;3.27;2.20;;;;;;;;;;4925910;29;20173;-86
2022/04/10 12:35:40;;;;;;;7.10;3.40;;;;;;;;;;4937283;29;20647;-86
2022/04/10 12:38:44;;;;;;;9.87;5.00;;;;;;;;;;4937539;29;20220;-85
2022/04/10 12:41:57;;;;;;;3.57;2.83;;;;;;;;;;4926662;29;20521;-85
2022/04/10 12:45:08;;;;;;;5.17;2.57;;;;;;;;;;4936711;29;20188;-86
2022/04/10 12:48:26;;;;;;;4.00;2.60;;;;;;;;;;4936925;29;20220;-86
2022/04/10 12:51:30;;;;;;;4.20;3.33;;;;;;;;;;4937122;29;20189;-85
2022/04/10 12:54:39;;;;;;;6.40;3.33;;;;;;;;;;4936958;29;20283;-85
2022/04/10 12:58:01;;;;;;;5.17;2.93;;;;;;;;;;4926287;29;20216;-86
2022/04/10 13:01:06;;;;;;;5.63;2.77;;;;;;;;;;4915192;29;20188;-89
2022/04/10 13:04:10;;;;;;;5.27;4.27;;;;;;;;;;4936910;29;20671;-88
2022/04/10 13:07:16;;;;;;;4.87;3.00;;;;;;;;;;4925919;29;20180;-88
2022/04/10 13:10:21;;;;;;;3.63;3.20;;;;;;;;;;4926060;29;20180;-89
2022/04/10 13:13:26;;;;;;;4.20;2.50;;;;;;;;;;4925467;29;20184;-89
2022/04/10 13:16:32;;;;;;;4.47;2.40;;;;;;;;;;4925971;29;20192;-89
2022/04/10 13:19:37;;;;;;;4.33;2.70;;;;;;;;;;4925433;29;20215;-89
2022/04/10 13:22:42;;;;;;;5.97;2.60;;;;;;;;;;4925213;29;20691;-89
2022/04/10 13:25:47;;;;;;;4.77;2.33;;;;;;;;;;4925325;29;20199;-89
2022/04/10 13:28:51;;;;;;;4.93;2.30;;;;;;;;;;4925173;29;20228;-88
2022/04/10 13:31:55;;;;;;;3.70;2.13;;;;;;;;;;4925305;29;20184;-87
2022/04/10 13:34:59;;;;;;;5.27;2.50;;;;;;;;;;4925405;29;20180;-87
2022/04/10 13:38:03;;;;;;;3.63;2.27;;;;;;;;;;4925306;29;20561;-87
2022/04/10 13:41:08;;;;;;;3.10;2.10;;;;;;;;;;4936239;29;20187;-87
2022/04/10 13:44:12;;;;;;;3.77;2.90;;;;;;;;;;4924957;29;20224;-87
2022/04/10 13:47:16;;;;;;;3.47;2.73;;;;;;;;;;4936666;29;20176;-87
2022/04/10 13:50:20;;;;;;;4.20;2.13;;;;;;;;;;4925534;29;20559;-87
2022/04/10 13:53:24;;;;;;;4.17;2.60;;;;;;;;;;4936428;29;20176;-87
2022/04/10 13:56:28;;;;;;;4.97;2.70;;;;;;;;;;4935874;29;20190;-88
2022/04/10 13:59:32;;;;;;;4.70;3.90;;;;;;;;;;4935456;29;20598;-88
2022/04/10 14:02:36;;;;;;;3.77;2.80;;;;;;;;;;4925166;29;20208;-88
2022/04/10 14:05:40;;;;;;;4.67;2.63;;;;;;;;;;4935628;29;20627;-88
2022/04/10 14:08:44;;;;;;;2.47;2.07;;;;;;;;;;4935962;29;20228;-88
2022/04/10 14:11:49;;;;;;;2.60;2.07;;;;;;;;;;4925201;29;20188;-88
2022/04/10 14:14:53;;;;;;;6.90;2.30;;;;;;;;;;4924717;29;20172;-88
2022/04/10 14:17:57;;;;;;;5.30;2.40;;;;;;;;;;4924592;29;20215;-88
2022/04/10 14:21:01;;;;;;;5.20;2.73;;;;;;;;;;4924478;29;20192;-88
2022/04/10 14:24:06;;;;;;;4.43;2.13;;;;;;;;;;4924620;29;20548;-88
2022/04/10 14:27:10;;;;;;;3.73;2.00;;;;;;;;;;4935427;29;20204;-88
2022/04/10 14:30:14;;;;;;;4.23;2.17;;;;;;;;;;4924392;29;20572;-88
2022/04/10 14:33:20;;;;;;;3.73;2.73;;;;;;;;;;4935517;29;20632;-88
2022/04/10 14:36:24;;;;;;;5.87;2.77;;;;;;;;;;4924574;29;20540;-87
2022/04/10 14:39:28;;;;;;;5.63;3.37;;;;;;;;;;4924485;29;20216;-88
2022/04/10 14:42:32;;;;;;;5.60;2.40;;;;;;;;;;4925070;29;20212;-88
2022/04/10 14:45:36;;;;;;;3.60;2.50;;;;;;;;;;4935670;29;20181;-88
2022/04/10 14:48:40;;;;;;;4.10;2.50;;;;;;;;;;4924348;29;20571;-87
2022/04/10 14:51:46;;;;;;;4.03;2.87;;;;;;;;;;4924185;29;20663;-88
2022/04/10 14:54:49;;;;;;;5.17;2.43;;;;;;;;;;4935247;29;20651;-88
2022/04/10 14:57:54;;;;;;;5.67;2.47;;;;;;;;;;4927585;29;20228;-87
2022/04/10 15:00:58;;;;;;;4.73;2.60;;;;;;;;;;4928147;29;20192;-88
2022/04/10 15:04:03;;;;;;;6.23;3.67;;;;;;;;;;4927910;29;20663;-88
2022/04/10 15:07:07;;;;;;;5.27;2.80;;;;;;;;;;4939211;29;20184;-88
2022/04/10 15:10:11;;;;;;;3.87;2.40;;;;;;;;;;4938590;29;20180;-87
2022/04/10 15:13:15;;;;;;;4.37;2.80;;;;;;;;;;4927430;29;20196;-87
2022/04/10 15:16:19;;;;;;;4.57;2.43;;;;;;;;;;4927568;29;20195;-88
2022/04/10 15:19:24;;;;;;;4.07;2.30;;;;;;;;;;4948393;29;20698;-87
2022/04/10 15:22:28;;;;;;;4.53;2.50;;;;;;;;;;4935617;29;20175;-87
2022/04/10 15:25:32;;;;;;;4.30;2.47;;;;;;;;;;4935056;29;20188;-87
2022/04/10 15:28:37;;;;;;;4.97;3.00;;;;;;;;;;4935737;29;20215;-86
2022/04/10 15:31:41;;;;;;;5.43;2.60;;;;;;;;;;4934745;29;20188;-86
2022/04/10 15:34:45;;;;;;;9.40;3.70;;;;;;;;;;4946439;29;20188;-86
2022/04/10 15:37:49;;;;;;;3.47;2.50;;;;;;;;;;4938281;29;20290;-86
2022/04/10 15:40:54;;;;;;;5.13;2.37;;;;;;;;;;4929383;29;20201;-86
2022/04/10 15:43:58;;;;;;;3.97;2.37;;;;;;;;;;4946182;29;20223;-86
2022/04/10 15:47:03;;;;;;;5.03;2.50;;;;;;;;;;4926884;29;20203;-87
2022/04/10 15:50:09;;;;;;;5.03;2.70;;;;;;;;;;4926992;29;20177;-86
2022/04/10 15:53:13;;;;;;;3.33;2.50;;;;;;;;;;4938229;29;20173;-86
2022/04/10 15:56:17;;;;;;;5.70;2.30;;;;;;;;;;4945637;29;20191;-87
2022/04/10 15:59:21;;;;;;;6.10;2.90;;;;;;;;;;4935874;29;20597;-87
2022/04/10 16:02:25;;;;;;;3.57;2.53;;;;;;;;;;4933489;29;20183;-86
2022/04/10 16:05:29;;;;;;;5.47;2.57;;;;;;;;;;4945768;29;20212;-87
2022/04/10 16:08:34;;;;;;;4.87;3.10;;;;;;;;;;4933699;29;20222;-86
2022/04/10 16:11:38;;;;;;;6.77;3.10;;;;;;;;;;4935272;29;20192;-86
2022/04/10 16:14:42;;;;;;;3.43;2.60;;;;;;;;;;4934342;29;20191;-86
2022/04/10 16:17:46;;;;;;;3.97;2.73;;;;;;;;;;4933157;29;20698;-86
2022/04/10 16:20:50;;;;;;;5.33;2.97;;;;;;;;;;4934548;29;20195;-86
2022/04/10 16:23:55;;;;;;;4.40;2.47;;;;;;;;;;4934428;29;20216;-87
2022/04/10 16:30:21;;;;;;;6.30;2.87;;;;;;;;;;4945416;29;20187;-87
2022/04/10 16:33:25;;;;;;;3.87;2.80;;;;;;;;;;4934352;29;20183;-86
2022/04/10 16:36:29;;;;;;;4.93;3.40;;;;;;;;;;4926065;29;20568;-87
2022/04/10 16:39:34;;;;;;;6.40;4.50;;;;;;;;;;4914887;29;20220;-86
2022/04/10 16:42:39;;;;;;;10.67;3.97;;;;;;;;;;4928346;29;20200;-86
2022/04/10 16:45:45;;;;;;;4.27;3.10;;;;;;;;;;4929674;29;20659;-87
2022/04/10 16:48:48;;;;;;;5.20;2.87;;;;;;;;;;4936105;29;20228;-86
2022/04/10 16:51:53;;;;;;;6.63;5.40;;;;;;;;;;4935854;29;20195;-86
2022/04/10 16:55:00;;;;;;;7.53;5.30;;;;;;;;;;4945165;29;20180;-87
2022/04/10 16:58:04;;;;;;;4.67;3.77;;;;;;;;;;4932309;29;20227;-86
2022/04/10 17:01:09;;;;;;;6.30;5.03;;;;;;;;;;4915111;29;20180;-87
2022/04/10 17:04:13;;;;;;;9.73;4.40;;;;;;;;;;4944273;29;20216;-86
2022/04/10 17:07:18;;;;;;;3.77;2.60;;;;;;;;;;4944556;29;20180;-86
2022/04/10 17:10:23;;;;;;;6.40;3.67;;;;;;;;;;4944278;29;20195;-86
2022/04/10 17:13:27;;;;;;;5.33;3.30;;;;;;;;;;4933682;29;20176;-86
2022/04/10 17:16:31;;;;;;;4.33;2.93;;;;;;;;;;4932914;29;20195;-86
2022/04/10 17:19:35;;;;;;;3.70;2.90;;;;;;;;;;4933423;29;20224;-86
2022/04/10 17:22:39;;;;;;;6.57;3.90;;;;;;;;;;4943578;29;20187;-86
2022/04/10 17:25:43;;;;;;;4.33;3.00;;;;;;;;;;4932548;29;20199;-85
2022/04/10 17:28:48;;;;;;;4.20;3.13;;;;;;;;;;4933368;29;20219;-86
2022/04/10 17:31:52;;;;;;;6.67;3.53;;;;;;;;;;4944392;29;20183;-86
2022/04/10 17:34:56;;;;;;;3.57;2.77;;;;;;;;;;4932719;29;20199;-86
2022/04/10 17:38:00;;;;;;;6.33;3.27;;;;;;;;;;4935808;29;20595;-86
2022/04/10 17:41:04;;;;;;;7.43;3.60;;;;;;;;;;4935469;29;20533;-87
2022/04/10 17:44:09;;;;;;;7.07;3.67;;;;;;;;;;4941537;29;20220;-86
2022/04/10 17:47:13;;;;;;;12.33;5.30;;;;;;;;;;4933346;29;20203;-87
2022/04/10 17:50:17;;;;;;;9.23;3.67;;;;;;;;;;4933032;29;20206;-86
2022/04/10 17:53:21;;;;;;;9.00;5.27;;;;;;;;;;4930533;29;20574;-86
2022/04/10 17:56:26;;;;;;;8.63;5.03;;;;;;;;;;4943298;29;20191;-86
2022/04/10 17:59:30;;;;;;;8.67;5.27;;;;;;;;;;4913684;29;20227;-86
2022/04/10 18:02:34;;;;;;;6.07;4.10;;;;;;;;;;4914851;29;20184;-86
2022/04/10 18:05:38;;;;;;;6.13;4.07;;;;;;;;;;4920146;29;20180;-86
2022/04/10 18:08:43;;;;;;;7.60;6.17;;;;;;;;;;4935196;29;20228;-86
2022/04/10 18:11:47;;;;;;;7.03;4.83;;;;;;;;;;4914859;29;20208;-86
2022/04/10 18:14:51;;;;;;;9.33;4.90;;;;;;;;;;4919438;29;20183;-86
2022/04/10 18:17:55;;;;;;;5.30;4.30;;;;;;;;;;4924290;29;20584;-86
2022/04/10 18:20:59;;;;;;;5.03;3.30;;;;;;;;;;4925032;29;20552;-86
2022/04/10 18:24:04;;;;;;;5.43;3.13;;;;;;;;;;4924614;29;20659;-87
2022/04/10 18:27:16;;;;;;;8.73;3.80;;;;;;;;;;4936839;29;20509;-86
2022/04/10 18:30:21;;;;;;;3.93;3.00;;;;;;;;;;4924498;29;20200;-86
2022/04/10 18:33:25;;;;;;;6.37;3.60;;;;;;;;;;4933093;29;20642;-86
2022/04/10 18:36:29;;;;;;;5.37;3.50;;;;;;;;;;4927980;29;20563;-86
2022/04/10 18:39:33;;;;;;;9.90;4.13;;;;;;;;;;4943069;29;20222;-86
2022/04/10 18:42:43;;;;;;;6.63;4.27;;;;;;;;;;4936594;29;20188;-86
2022/04/10 18:45:47;;;;;;;8.33;4.63;;;;;;;;;;4936144;29;20205;-86
2022/04/10 18:52:16;;;;;;;8.53;3.70;;;;;;;;;;4946475;29;20659;-86
2022/04/10 18:55:21;;;;;;;5.37;3.47;;;;;;;;;;4957698;29;20209;-85
2022/04/10 18:58:24;;;;;;;7.97;3.80;;;;;;;;;;4925610;29;20223;-84
2022/04/10 19:01:29;;;;;;;8.07;3.87;;;;;;;;;;4946749;29;20187;-84
2022/04/10 19:04:33;;;;;;;5.57;3.70;;;;;;;;;;4957258;29;20211;-84
2022/04/10 19:07:37;;;;;;;4.60;3.20;;;;;;;;;;4947040;28;20539;-84